This is the latest recevied weather packets stored in our database for station/object OH2NJR. If no packets are shown the sender has not sent any weather packets the latest 10 day(s).
| Time | Temp. | Humidity | Pressure | Rain* | Wind** | Luminosity | Snow |
|---|---|---|---|---|---|---|---|
| 1777727038 | 12.78° C | 58% | 1009.4 hPa | 0 mm | - | - | - |
| 1777725858 | 10° C | 67% | 1010 hPa | 0 mm | - | - | - |
| 1777724681 | 9.44° C | 68% | - | 0 mm | - | - | - |
| 1777724678 | 9.44° C | 68% | 1010 hPa | 0 mm | - | - | - |
| 1777723619 | 9.44° C | 69% | 1010.1 hPa | 0 mm | - | - | - |
| 1777722658 | 9.44° C | 68% | 1010.2 hPa | 0 mm | - | - | - |
| 1777721689 | 10° C | 67% | 1010.2 hPa | 0 mm | - | - | - |
| 1777720608 | 9.44° C | 69% | 1010.4 hPa | 0 mm | - | - | - |
| 1777719767 | 10° C | 68% | 1010.3 hPa | 0 mm | - | - | - |
| 1777719618 | 10° C | 68% | 1010.3 hPa | 0 mm | - | - | - |
| 1777718483 | 10° C | 68% | 1010.5 hPa | 0 mm | - | - | - |
| 1777717468 | 10.56° C | 66% | 1010.6 hPa | 0 mm | - | - | - |
| 1777716448 | 9.44° C | 71% | 1010.9 hPa | 0 mm | - | - | - |
| 1777715413 | 8.89° C | 73% | 1010.8 hPa | 0 mm | - | - | - |
| 1777714446 | 9.44° C | 70% | 1010.8 hPa | 0 mm | - | - | - |
| 1777714444 | 9.44° C | 70% | 1010.8 hPa | 0 mm | - | - | - |
| 1777713474 | 10° C | 70% | 1010.9 hPa | 0 mm | - | - | - |
| 1777712363 | 10° C | 70% | 1011.2 hPa | 0 mm | - | - | - |
| 1777711363 | 10° C | 69% | 1011.2 hPa | 0 mm | - | - | - |
| 1777710281 | 9.44° C | - | - | 0 mm | - | - | - |
| 1777710278 | 9.44° C | 72% | 1011.3 hPa | 0 mm | - | - | - |
| 1777709160 | 10° C | 69% | 1011.2 hPa | 0 mm | - | - | - |
| 1777708099 | 10° C | 71% | 1011.2 hPa | 0 mm | - | - | - |
| 1777707138 | 9.44° C | 72% | 1011.3 hPa | 0 mm | - | - | - |
| 1777706129 | 9.44° C | 71% | 1011.3 hPa | 0 mm | - | - | - |
* Rain latest hour (hover to see other rain measurements)
** Current wind speed in m/s (hover to see current wind gust speed)